sensor_id;sensor_type;location;lat;lon;timestamp;P1;durP1;ratioP1;P2;durP2;ratioP2
47021;SDS011;32779;52.264;6.154;2024-02-16T00:01:31;5.93;;;2.20;;
47021;SDS011;32779;52.264;6.154;2024-02-16T00:03:57;5.75;;;2.38;;
47021;SDS011;32779;52.264;6.154;2024-02-16T00:06:23;6.20;;;2.30;;
47021;SDS011;32779;52.264;6.154;2024-02-16T00:08:48;4.25;;;2.30;;
47021;SDS011;32779;52.264;6.154;2024-02-16T00:11:14;7.10;;;2.50;;
47021;SDS011;32779;52.264;6.154;2024-02-16T00:13:39;5.07;;;2.60;;
47021;SDS011;32779;52.264;6.154;2024-02-16T00:16:05;4.35;;;2.58;;
47021;SDS011;32779;52.264;6.154;2024-02-16T00:18:31;10.00;;;2.03;;
47021;SDS011;32779;52.264;6.154;2024-02-16T00:20:56;9.90;;;2.50;;
47021;SDS011;32779;52.264;6.154;2024-02-16T00:23:22;6.13;;;2.60;;
47021;SDS011;32779;52.264;6.154;2024-02-16T00:25:50;6.43;;;2.30;;
47021;SDS011;32779;52.264;6.154;2024-02-16T00:28:16;8.77;;;2.20;;
47021;SDS011;32779;52.264;6.154;2024-02-16T00:30:41;6.45;;;2.63;;
47021;SDS011;32779;52.264;6.154;2024-02-16T00:33:07;4.75;;;2.15;;
47021;SDS011;32779;52.264;6.154;2024-02-16T00:35:32;8.93;;;2.60;;
47021;SDS011;32779;52.264;6.154;2024-02-16T00:37:59;5.28;;;2.30;;
47021;SDS011;32779;52.264;6.154;2024-02-16T00:40:25;5.65;;;2.40;;
47021;SDS011;32779;52.264;6.154;2024-02-16T00:45:17;7.03;;;2.40;;
47021;SDS011;32779;52.264;6.154;2024-02-16T00:47:42;5.95;;;2.65;;
47021;SDS011;32779;52.264;6.154;2024-02-16T00:50:10;4.85;;;2.35;;
47021;SDS011;32779;52.264;6.154;2024-02-16T00:52:36;6.85;;;2.20;;
47021;SDS011;32779;52.264;6.154;2024-02-16T00:57:29;7.25;;;2.38;;
47021;SDS011;32779;52.264;6.154;2024-02-16T00:59:54;7.97;;;2.45;;
47021;SDS011;32779;52.264;6.154;2024-02-16T01:02:20;6.05;;;2.33;;
47021;SDS011;32779;52.264;6.154;2024-02-16T01:04:47;9.45;;;2.47;;
47021;SDS011;32779;52.264;6.154;2024-02-16T01:07:15;8.13;;;2.70;;
47021;SDS011;32779;52.264;6.154;2024-02-16T01:09:40;5.28;;;2.03;;
47021;SDS011;32779;52.264;6.154;2024-02-16T01:12:06;4.70;;;2.30;;
47021;SDS011;32779;52.264;6.154;2024-02-16T01:14:31;5.22;;;2.50;;
47021;SDS011;32779;52.264;6.154;2024-02-16T01:16:57;5.88;;;2.40;;
47021;SDS011;32779;52.264;6.154;2024-02-16T01:19:22;4.68;;;2.42;;
47021;SDS011;32779;52.264;6.154;2024-02-16T01:21:48;5.70;;;2.70;;
47021;SDS011;32779;52.264;6.154;2024-02-16T01:24:17;8.73;;;2.60;;
47021;SDS011;32779;52.264;6.154;2024-02-16T01:26:44;7.28;;;2.60;;
47021;SDS011;32779;52.264;6.154;2024-02-16T01:29:09;7.00;;;2.50;;
47021;SDS011;32779;52.264;6.154;2024-02-16T01:31:35;6.80;;;2.38;;
47021;SDS011;32779;52.264;6.154;2024-02-16T01:34:01;6.22;;;2.42;;
47021;SDS011;32779;52.264;6.154;2024-02-16T01:36:27;4.70;;;2.22;;
47021;SDS011;32779;52.264;6.154;2024-02-16T01:38:53;4.65;;;2.28;;
47021;SDS011;32779;52.264;6.154;2024-02-16T01:41:19;8.52;;;2.35;;
47021;SDS011;32779;52.264;6.154;2024-02-16T01:43:44;6.57;;;2.67;;
47021;SDS011;32779;52.264;6.154;2024-02-16T01:46:10;8.15;;;2.53;;
47021;SDS011;32779;52.264;6.154;2024-02-16T01:48:36;4.95;;;2.08;;
47021;SDS011;32779;52.264;6.154;2024-02-16T01:51:04;5.72;;;2.38;;
47021;SDS011;32779;52.264;6.154;2024-02-16T01:53:31;7.80;;;2.38;;
47021;SDS011;32779;52.264;6.154;2024-02-16T01:55:57;5.05;;;2.25;;
47021;SDS011;32779;52.264;6.154;2024-02-16T01:58:23;6.15;;;2.38;;
47021;SDS011;32779;52.264;6.154;2024-02-16T02:00:48;6.82;;;2.50;;
47021;SDS011;32779;52.264;6.154;2024-02-16T02:03:14;6.18;;;2.53;;
47021;SDS011;32779;52.264;6.154;2024-02-16T02:05:46;7.20;;;2.53;;
47021;SDS011;32779;52.264;6.154;2024-02-16T02:08:12;5.35;;;2.08;;
47021;SDS011;32779;52.264;6.154;2024-02-16T02:10:38;6.70;;;2.30;;
47021;SDS011;32779;52.264;6.154;2024-02-16T02:13:04;7.97;;;2.50;;
47021;SDS011;32779;52.264;6.154;2024-02-16T02:15:30;5.20;;;2.33;;
47021;SDS011;32779;52.264;6.154;2024-02-16T02:17:55;4.82;;;2.30;;
47021;SDS011;32779;52.264;6.154;2024-02-16T02:20:23;13.20;;;3.05;;
47021;SDS011;32779;52.264;6.154;2024-02-16T02:22:48;6.90;;;3.00;;
47021;SDS011;32779;52.264;6.154;2024-02-16T02:25:14;5.70;;;2.72;;
47021;SDS011;32779;52.264;6.154;2024-02-16T02:27:40;4.60;;;2.40;;
47021;SDS011;32779;52.264;6.154;2024-02-16T02:30:05;7.38;;;2.40;;
47021;SDS011;32779;52.264;6.154;2024-02-16T02:34:57;3.75;;;2.20;;
47021;SDS011;32779;52.264;6.154;2024-02-16T02:37:23;4.93;;;2.40;;
47021;SDS011;32779;52.264;6.154;2024-02-16T02:39:48;6.25;;;2.38;;
47021;SDS011;32779;52.264;6.154;2024-02-16T02:42:14;4.63;;;2.60;;
47021;SDS011;32779;52.264;6.154;2024-02-16T02:44:39;3.50;;;2.20;;
47021;SDS011;32779;52.264;6.154;2024-02-16T02:47:05;6.22;;;2.60;;
47021;SDS011;32779;52.264;6.154;2024-02-16T02:49:31;3.83;;;2.00;;
47021;SDS011;32779;52.264;6.154;2024-02-16T02:51:59;2.85;;;2.08;;
47021;SDS011;32779;52.264;6.154;2024-02-16T02:54:25;4.13;;;2.22;;
47021;SDS011;32779;52.264;6.154;2024-02-16T02:56:51;6.00;;;2.47;;
47021;SDS011;32779;52.264;6.154;2024-02-16T02:59:16;6.72;;;2.33;;
47021;SDS011;32779;52.264;6.154;2024-02-16T03:01:42;7.35;;;2.65;;
47021;SDS011;32779;52.264;6.154;2024-02-16T03:04:07;4.38;;;2.33;;
47021;SDS011;32779;52.264;6.154;2024-02-16T03:06:34;5.68;;;2.33;;
47021;SDS011;32779;52.264;6.154;2024-02-16T03:08:59;4.55;;;2.30;;
47021;SDS011;32779;52.264;6.154;2024-02-16T03:11:25;5.22;;;2.38;;
47021;SDS011;32779;52.264;6.154;2024-02-16T03:16:17;5.13;;;2.35;;
47021;SDS011;32779;52.264;6.154;2024-02-16T03:18:42;6.30;;;2.50;;
47021;SDS011;32779;52.264;6.154;2024-02-16T03:21:08;5.07;;;2.40;;
47021;SDS011;32779;52.264;6.154;2024-02-16T03:23:37;5.25;;;2.45;;
47021;SDS011;32779;52.264;6.154;2024-02-16T03:26:02;7.07;;;2.60;;
47021;SDS011;32779;52.264;6.154;2024-02-16T03:28:29;5.88;;;2.25;;
47021;SDS011;32779;52.264;6.154;2024-02-16T03:30:55;5.40;;;3.10;;
47021;SDS011;32779;52.264;6.154;2024-02-16T03:33:21;5.60;;;2.45;;
47021;SDS011;32779;52.264;6.154;2024-02-16T03:35:46;8.80;;;2.53;;
47021;SDS011;32779;52.264;6.154;2024-02-16T03:38:13;6.25;;;2.40;;
47021;SDS011;32779;52.264;6.154;2024-02-16T03:40:39;4.78;;;2.70;;
47021;SDS011;32779;52.264;6.154;2024-02-16T03:43:04;9.00;;;2.72;;
47021;SDS011;32779;52.264;6.154;2024-02-16T03:45:30;8.80;;;2.58;;
47021;SDS011;32779;52.264;6.154;2024-02-16T03:47:56;4.28;;;2.63;;
47021;SDS011;32779;52.264;6.154;2024-02-16T03:50:21;7.35;;;2.80;;
47021;SDS011;32779;52.264;6.154;2024-02-16T03:52:50;4.45;;;2.78;;
47021;SDS011;32779;52.264;6.154;2024-02-16T03:55:15;7.28;;;2.80;;
47021;SDS011;32779;52.264;6.154;2024-02-16T03:57:41;5.80;;;2.67;;
47021;SDS011;32779;52.264;6.154;2024-02-16T04:00:09;5.70;;;2.80;;
47021;SDS011;32779;52.264;6.154;2024-02-16T04:02:37;5.97;;;2.97;;
47021;SDS011;32779;52.264;6.154;2024-02-16T04:05:03;8.18;;;2.90;;
47021;SDS011;32779;52.264;6.154;2024-02-16T04:07:29;5.85;;;2.55;;
47021;SDS011;32779;52.264;6.154;2024-02-16T04:09:54;4.88;;;2.42;;
47021;SDS011;32779;52.264;6.154;2024-02-16T04:12:20;8.18;;;2.83;;
47021;SDS011;32779;52.264;6.154;2024-02-16T04:14:45;4.47;;;2.38;;
47021;SDS011;32779;52.264;6.154;2024-02-16T04:17:11;5.90;;;2.40;;
47021;SDS011;32779;52.264;6.154;2024-02-16T04:19:36;5.80;;;2.70;;
47021;SDS011;32779;52.264;6.154;2024-02-16T04:22:03;5.38;;;2.72;;
47021;SDS011;32779;52.264;6.154;2024-02-16T04:24:28;5.22;;;2.63;;
47021;SDS011;32779;52.264;6.154;2024-02-16T04:26:54;7.28;;;2.33;;
47021;SDS011;32779;52.264;6.154;2024-02-16T04:29:19;9.15;;;2.78;;
47021;SDS011;32779;52.264;6.154;2024-02-16T04:31:45;5.85;;;2.90;;
47021;SDS011;32779;52.264;6.154;2024-02-16T04:34:11;7.20;;;2.42;;
47021;SDS011;32779;52.264;6.154;2024-02-16T04:36:37;5.13;;;2.30;;
47021;SDS011;32779;52.264;6.154;2024-02-16T04:39:03;6.45;;;2.67;;
47021;SDS011;32779;52.264;6.154;2024-02-16T04:41:28;5.72;;;2.70;;
47021;SDS011;32779;52.264;6.154;2024-02-16T04:43:54;6.90;;;2.50;;
47021;SDS011;32779;52.264;6.154;2024-02-16T04:46:20;4.53;;;2.53;;
47021;SDS011;32779;52.264;6.154;2024-02-16T04:48:46;4.45;;;2.55;;
47021;SDS011;32779;52.264;6.154;2024-02-16T04:51:12;6.90;;;2.88;;
47021;SDS011;32779;52.264;6.154;2024-02-16T04:53:37;6.22;;;2.67;;
47021;SDS011;32779;52.264;6.154;2024-02-16T04:56:03;6.15;;;2.40;;
47021;SDS011;32779;52.264;6.154;2024-02-16T04:58:30;6.78;;;3.05;;
47021;SDS011;32779;52.264;6.154;2024-02-16T05:00:55;6.32;;;2.90;;
47021;SDS011;32779;52.264;6.154;2024-02-16T05:03:21;5.78;;;2.40;;
47021;SDS011;32779;52.264;6.154;2024-02-16T05:05:46;6.03;;;2.72;;
47021;SDS011;32779;52.264;6.154;2024-02-16T05:08:12;5.68;;;2.72;;
47021;SDS011;32779;52.264;6.154;2024-02-16T05:10:38;7.30;;;3.05;;
47021;SDS011;32779;52.264;6.154;2024-02-16T05:13:04;4.93;;;2.60;;
47021;SDS011;32779;52.264;6.154;2024-02-16T05:15:29;6.18;;;2.92;;
47021;SDS011;32779;52.264;6.154;2024-02-16T05:17:56;7.43;;;2.83;;
47021;SDS011;32779;52.264;6.154;2024-02-16T05:22:48;6.55;;;2.67;;
47021;SDS011;32779;52.264;6.154;2024-02-16T05:27:43;8.07;;;2.65;;
47021;SDS011;32779;52.264;6.154;2024-02-16T05:30:10;5.70;;;2.85;;
47021;SDS011;32779;52.264;6.154;2024-02-16T05:32:38;6.15;;;3.00;;
47021;SDS011;32779;52.264;6.154;2024-02-16T05:35:04;7.60;;;3.00;;
47021;SDS011;32779;52.264;6.154;2024-02-16T05:37:42;5.75;;;2.70;;
47021;SDS011;32779;52.264;6.154;2024-02-16T05:40:09;3.72;;;2.85;;
47021;SDS011;32779;52.264;6.154;2024-02-16T05:42:52;6.38;;;2.70;;
47021;SDS011;32779;52.264;6.154;2024-02-16T05:47:44;5.55;;;3.40;;
47021;SDS011;32779;52.264;6.154;2024-02-16T05:50:11;4.97;;;2.60;;
47021;SDS011;32779;52.264;6.154;2024-02-16T05:52:38;5.25;;;2.58;;
47021;SDS011;32779;52.264;6.154;2024-02-16T05:55:05;5.07;;;3.13;;
47021;SDS011;32779;52.264;6.154;2024-02-16T05:57:31;6.70;;;2.72;;
47021;SDS011;32779;52.264;6.154;2024-02-16T05:59:57;5.45;;;2.72;;
47021;SDS011;32779;52.264;6.154;2024-02-16T06:02:22;4.03;;;2.78;;
47021;SDS011;32779;52.264;6.154;2024-02-16T06:04:50;6.07;;;2.88;;
47021;SDS011;32779;52.264;6.154;2024-02-16T06:07:16;10.88;;;3.95;;
47021;SDS011;32779;52.264;6.154;2024-02-16T06:09:42;5.68;;;3.22;;
47021;SDS011;32779;52.264;6.154;2024-02-16T06:12:08;3.90;;;2.70;;
47021;SDS011;32779;52.264;6.154;2024-02-16T06:14:34;7.05;;;3.10;;
47021;SDS011;32779;52.264;6.154;2024-02-16T06:17:01;4.85;;;2.90;;
47021;SDS011;32779;52.264;6.154;2024-02-16T06:21:53;7.53;;;2.83;;
47021;SDS011;32779;52.264;6.154;2024-02-16T06:24:20;4.43;;;2.58;;
47021;SDS011;32779;52.264;6.154;2024-02-16T06:26:49;6.40;;;3.05;;
47021;SDS011;32779;52.264;6.154;2024-02-16T06:29:18;6.35;;;2.83;;
47021;SDS011;32779;52.264;6.154;2024-02-16T06:31:47;3.95;;;2.60;;
47021;SDS011;32779;52.264;6.154;2024-02-16T06:34:13;3.85;;;2.50;;
47021;SDS011;32779;52.264;6.154;2024-02-16T06:36:39;8.00;;;2.95;;
47021;SDS011;32779;52.264;6.154;2024-02-16T06:39:04;5.47;;;2.72;;
47021;SDS011;32779;52.264;6.154;2024-02-16T06:41:30;7.47;;;3.05;;
47021;SDS011;32779;52.264;6.154;2024-02-16T06:43:56;4.95;;;2.70;;
47021;SDS011;32779;52.264;6.154;2024-02-16T06:46:21;4.95;;;2.70;;
47021;SDS011;32779;52.264;6.154;2024-02-16T06:48:47;8.98;;;2.83;;
47021;SDS011;32779;52.264;6.154;2024-02-16T06:51:13;5.30;;;2.58;;
47021;SDS011;32779;52.264;6.154;2024-02-16T06:53:38;5.15;;;2.55;;
47021;SDS011;32779;52.264;6.154;2024-02-16T06:56:04;8.45;;;2.72;;
47021;SDS011;32779;52.264;6.154;2024-02-16T06:58:30;8.45;;;3.33;;
47021;SDS011;32779;52.264;6.154;2024-02-16T07:00:55;5.90;;;2.75;;
47021;SDS011;32779;52.264;6.154;2024-02-16T07:03:23;6.38;;;2.90;;
47021;SDS011;32779;52.264;6.154;2024-02-16T07:05:48;9.13;;;2.53;;
47021;SDS011;32779;52.264;6.154;2024-02-16T07:08:14;4.70;;;2.60;;
47021;SDS011;32779;52.264;6.154;2024-02-16T07:10:40;6.47;;;2.80;;
47021;SDS011;32779;52.264;6.154;2024-02-16T07:13:05;6.10;;;2.47;;
47021;SDS011;32779;52.264;6.154;2024-02-16T07:15:31;4.78;;;2.38;;
47021;SDS011;32779;52.264;6.154;2024-02-16T07:17:57;5.18;;;2.53;;
47021;SDS011;32779;52.264;6.154;2024-02-16T07:20:23;9.30;;;3.10;;
47021;SDS011;32779;52.264;6.154;2024-02-16T07:22:48;5.75;;;2.83;;
47021;SDS011;32779;52.264;6.154;2024-02-16T07:25:16;5.47;;;2.47;;
47021;SDS011;32779;52.264;6.154;2024-02-16T07:27:43;5.40;;;2.78;;
47021;SDS011;32779;52.264;6.154;2024-02-16T07:30:10;6.03;;;2.60;;
47021;SDS011;32779;52.264;6.154;2024-02-16T07:32:38;5.03;;;2.72;;
47021;SDS011;32779;52.264;6.154;2024-02-16T07:35:04;8.07;;;2.60;;
47021;SDS011;32779;52.264;6.154;2024-02-16T07:37:30;6.97;;;3.00;;
47021;SDS011;32779;52.264;6.154;2024-02-16T07:39:55;7.55;;;3.00;;
47021;SDS011;32779;52.264;6.154;2024-02-16T07:42:21;4.90;;;2.72;;
47021;SDS011;32779;52.264;6.154;2024-02-16T07:44:48;7.90;;;2.75;;
47021;SDS011;32779;52.264;6.154;2024-02-16T07:47:13;6.82;;;2.92;;
47021;SDS011;32779;52.264;6.154;2024-02-16T07:49:40;6.05;;;2.60;;
47021;SDS011;32779;52.264;6.154;2024-02-16T07:52:06;5.72;;;2.70;;
47021;SDS011;32779;52.264;6.154;2024-02-16T07:54:31;7.78;;;2.45;;
47021;SDS011;32779;52.264;6.154;2024-02-16T07:56:57;8.90;;;2.83;;
47021;SDS011;32779;52.264;6.154;2024-02-16T07:59:24;5.78;;;2.67;;
47021;SDS011;32779;52.264;6.154;2024-02-16T08:01:50;7.53;;;3.17;;
47021;SDS011;32779;52.264;6.154;2024-02-16T08:04:16;6.45;;;2.72;;
47021;SDS011;32779;52.264;6.154;2024-02-16T08:06:42;3.95;;;2.63;;
47021;SDS011;32779;52.264;6.154;2024-02-16T08:09:07;4.30;;;3.00;;
47021;SDS011;32779;52.264;6.154;2024-02-16T08:11:33;5.07;;;3.08;;
47021;SDS011;32779;52.264;6.154;2024-02-16T08:13:59;6.65;;;2.90;;
47021;SDS011;32779;52.264;6.154;2024-02-16T08:16:28;6.80;;;3.10;;
47021;SDS011;32779;52.264;6.154;2024-02-16T08:18:54;5.78;;;2.55;;
47021;SDS011;32779;52.264;6.154;2024-02-16T08:21:20;6.88;;;2.58;;
47021;SDS011;32779;52.264;6.154;2024-02-16T08:26:12;6.75;;;2.70;;
47021;SDS011;32779;52.264;6.154;2024-02-16T08:28:37;10.88;;;3.50;;
47021;SDS011;32779;52.264;6.154;2024-02-16T08:31:04;12.32;;;3.28;;
47021;SDS011;32779;52.264;6.154;2024-02-16T08:33:29;7.32;;;3.00;;
47021;SDS011;32779;52.264;6.154;2024-02-16T08:35:56;6.13;;;3.10;;
47021;SDS011;32779;52.264;6.154;2024-02-16T08:38:22;6.10;;;2.85;;
47021;SDS011;32779;52.264;6.154;2024-02-16T08:40:47;8.02;;;3.03;;
47021;SDS011;32779;52.264;6.154;2024-02-16T08:43:16;8.45;;;3.03;;
47021;SDS011;32779;52.264;6.154;2024-02-16T08:45:42;5.95;;;2.72;;
47021;SDS011;32779;52.264;6.154;2024-02-16T08:48:07;7.40;;;3.00;;
47021;SDS011;32779;52.264;6.154;2024-02-16T08:50:33;8.00;;;3.25;;
47021;SDS011;32779;52.264;6.154;2024-02-16T08:52:58;8.82;;;3.15;;
47021;SDS011;32779;52.264;6.154;2024-02-16T08:55:24;6.18;;;2.92;;
47021;SDS011;32779;52.264;6.154;2024-02-16T08:57:50;5.47;;;3.20;;
47021;SDS011;32779;52.264;6.154;2024-02-16T09:00:15;6.22;;;2.95;;
47021;SDS011;32779;52.264;6.154;2024-02-16T09:02:41;7.13;;;3.17;;
47021;SDS011;32779;52.264;6.154;2024-02-16T09:05:07;8.52;;;3.10;;
47021;SDS011;32779;52.264;6.154;2024-02-16T09:07:35;4.47;;;3.40;;
47021;SDS011;32779;52.264;6.154;2024-02-16T09:10:00;5.32;;;3.08;;
47021;SDS011;32779;52.264;6.154;2024-02-16T09:12:26;7.22;;;3.50;;
47021;SDS011;32779;52.264;6.154;2024-02-16T09:14:52;8.35;;;3.25;;
47021;SDS011;32779;52.264;6.154;2024-02-16T09:17:18;10.68;;;3.00;;
47021;SDS011;32779;52.264;6.154;2024-02-16T09:19:45;6.18;;;3.17;;
47021;SDS011;32779;52.264;6.154;2024-02-16T09:22:11;9.00;;;3.47;;
47021;SDS011;32779;52.264;6.154;2024-02-16T09:24:36;11.32;;;4.57;;
47021;SDS011;32779;52.264;6.154;2024-02-16T09:27:02;7.15;;;3.97;;
47021;SDS011;32779;52.264;6.154;2024-02-16T09:29:29;11.98;;;3.35;;
47021;SDS011;32779;52.264;6.154;2024-02-16T09:31:55;6.93;;;3.47;;
47021;SDS011;32779;52.264;6.154;2024-02-16T09:34:21;8.48;;;4.35;;
47021;SDS011;32779;52.264;6.154;2024-02-16T09:36:46;9.00;;;3.80;;
47021;SDS011;32779;52.264;6.154;2024-02-16T09:39:12;5.18;;;3.17;;
47021;SDS011;32779;52.264;6.154;2024-02-16T09:41:38;9.85;;;4.13;;
47021;SDS011;32779;52.264;6.154;2024-02-16T09:44:07;12.88;;;4.10;;
47021;SDS011;32779;52.264;6.154;2024-02-16T09:46:32;7.18;;;3.70;;
47021;SDS011;32779;52.264;6.154;2024-02-16T09:49:01;10.35;;;3.40;;
47021;SDS011;32779;52.264;6.154;2024-02-16T09:51:28;5.95;;;3.50;;
47021;SDS011;32779;52.264;6.154;2024-02-16T09:53:54;7.10;;;3.40;;
47021;SDS011;32779;52.264;6.154;2024-02-16T09:56:20;9.70;;;3.47;;
47021;SDS011;32779;52.264;6.154;2024-02-16T09:58:46;6.53;;;3.40;;
47021;SDS011;32779;52.264;6.154;2024-02-16T10:01:18;7.25;;;3.85;;
47021;SDS011;32779;52.264;6.154;2024-02-16T10:03:50;9.13;;;3.80;;
47021;SDS011;32779;52.264;6.154;2024-02-16T10:06:16;11.35;;;3.50;;
47021;SDS011;32779;52.264;6.154;2024-02-16T10:08:49;7.78;;;3.92;;
47021;SDS011;32779;52.264;6.154;2024-02-16T10:11:24;9.38;;;3.67;;
47021;SDS011;32779;52.264;6.154;2024-02-16T10:13:55;6.45;;;3.85;;
47021;SDS011;32779;52.264;6.154;2024-02-16T10:16:28;11.98;;;4.47;;
47021;SDS011;32779;52.264;6.154;2024-02-16T10:18:55;8.82;;;4.05;;
47021;SDS011;32779;52.264;6.154;2024-02-16T10:21:29;11.13;;;4.32;;
47021;SDS011;32779;52.264;6.154;2024-02-16T10:24:01;7.75;;;3.85;;
47021;SDS011;32779;52.264;6.154;2024-02-16T10:26:31;9.73;;;4.60;;
47021;SDS011;32779;52.264;6.154;2024-02-16T10:31:25;10.80;;;3.70;;
47021;SDS011;32779;52.264;6.154;2024-02-16T10:33:59;11.70;;;4.30;;
47021;SDS011;32779;52.264;6.154;2024-02-16T10:36:27;9.23;;;4.38;;
47021;SDS011;32779;52.264;6.154;2024-02-16T10:38:53;8.90;;;4.60;;
47021;SDS011;32779;52.264;6.154;2024-02-16T10:41:27;8.63;;;4.20;;
47021;SDS011;32779;52.264;6.154;2024-02-16T10:43:56;9.15;;;3.63;;
47021;SDS011;32779;52.264;6.154;2024-02-16T10:46:22;11.45;;;4.30;;
47021;SDS011;32779;52.264;6.154;2024-02-16T10:48:49;9.50;;;4.50;;
47021;SDS011;32779;52.264;6.154;2024-02-16T10:51:15;8.85;;;4.93;;
47021;SDS011;32779;52.264;6.154;2024-02-16T10:53:44;9.32;;;4.80;;
47021;SDS011;32779;52.264;6.154;2024-02-16T10:56:12;10.82;;;5.82;;
47021;SDS011;32779;52.264;6.154;2024-02-16T10:58:38;13.50;;;5.50;;
47021;SDS011;32779;52.264;6.154;2024-02-16T11:01:08;10.35;;;5.50;;
47021;SDS011;32779;52.264;6.154;2024-02-16T11:03:37;9.73;;;5.53;;
47021;SDS011;32779;52.264;6.154;2024-02-16T11:06:11;8.32;;;4.85;;
47021;SDS011;32779;52.264;6.154;2024-02-16T11:08:42;7.97;;;5.18;;
47021;SDS011;32779;52.264;6.154;2024-02-16T11:11:08;10.10;;;5.78;;
47021;SDS011;32779;52.264;6.154;2024-02-16T11:13:38;13.23;;;5.65;;
47021;SDS011;32779;52.264;6.154;2024-02-16T11:16:08;13.02;;;6.70;;
47021;SDS011;32779;52.264;6.154;2024-02-16T11:18:38;10.93;;;5.97;;
47021;SDS011;32779;52.264;6.154;2024-02-16T11:21:06;8.88;;;6.13;;
47021;SDS011;32779;52.264;6.154;2024-02-16T11:23:35;14.38;;;7.40;;
47021;SDS011;32779;52.264;6.154;2024-02-16T11:26:02;8.63;;;6.15;;
47021;SDS011;32779;52.264;6.154;2024-02-16T11:28:31;11.45;;;6.40;;
47021;SDS011;32779;52.264;6.154;2024-02-16T11:30:58;14.35;;;6.32;;
47021;SDS011;32779;52.264;6.154;2024-02-16T11:33:23;10.50;;;6.43;;
47021;SDS011;32779;52.264;6.154;2024-02-16T11:35:55;9.55;;;7.13;;
47021;SDS011;32779;52.264;6.154;2024-02-16T11:38:22;12.13;;;7.57;;
47021;SDS011;32779;52.264;6.154;2024-02-16T11:40:55;13.70;;;8.25;;
47021;SDS011;32779;52.264;6.154;2024-02-16T11:43:22;12.68;;;7.82;;
47021;SDS011;32779;52.264;6.154;2024-02-16T11:45:49;12.77;;;8.60;;
47021;SDS011;32779;52.264;6.154;2024-02-16T11:48:21;12.23;;;8.45;;
47021;SDS011;32779;52.264;6.154;2024-02-16T11:50:48;12.93;;;8.32;;
47021;SDS011;32779;52.264;6.154;2024-02-16T11:53:18;16.42;;;9.02;;
47021;SDS011;32779;52.264;6.154;2024-02-16T11:55:47;12.23;;;8.52;;
47021;SDS011;32779;52.264;6.154;2024-02-16T11:58:14;15.23;;;8.30;;
47021;SDS011;32779;52.264;6.154;2024-02-16T12:00:47;12.95;;;8.18;;
47021;SDS011;32779;52.264;6.154;2024-02-16T12:05:53;11.30;;;7.60;;
47021;SDS011;32779;52.264;6.154;2024-02-16T12:08:20;11.77;;;7.70;;
47021;SDS011;32779;52.264;6.154;2024-02-16T12:10:50;11.70;;;7.53;;
47021;SDS011;32779;52.264;6.154;2024-02-16T12:13:17;13.15;;;7.72;;
47021;SDS011;32779;52.264;6.154;2024-02-16T12:15:46;12.57;;;7.35;;
47021;SDS011;32779;52.264;6.154;2024-02-16T12:18:25;12.80;;;7.07;;
47021;SDS011;32779;52.264;6.154;2024-02-16T12:21:02;11.02;;;7.90;;
47021;SDS011;32779;52.264;6.154;2024-02-16T12:23:29;10.38;;;7.07;;
47021;SDS011;32779;52.264;6.154;2024-02-16T12:26:00;8.70;;;6.95;;
47021;SDS011;32779;52.264;6.154;2024-02-16T12:28:27;8.90;;;6.72;;
47021;SDS011;32779;52.264;6.154;2024-02-16T12:30:55;8.15;;;7.18;;
47021;SDS011;32779;52.264;6.154;2024-02-16T12:33:23;10.05;;;7.25;;
47021;SDS011;32779;52.264;6.154;2024-02-16T12:35:50;9.80;;;7.13;;
47021;SDS011;32779;52.264;6.154;2024-02-16T12:38:15;10.55;;;7.32;;
47021;SDS011;32779;52.264;6.154;2024-02-16T12:40:44;10.30;;;7.68;;
47021;SDS011;32779;52.264;6.154;2024-02-16T12:43:11;10.73;;;7.53;;
47021;SDS011;32779;52.264;6.154;2024-02-16T12:45:37;10.27;;;7.25;;
47021;SDS011;32779;52.264;6.154;2024-02-16T12:48:03;8.05;;;7.05;;
47021;SDS011;32779;52.264;6.154;2024-02-16T12:50:30;9.73;;;7.30;;
47021;SDS011;32779;52.264;6.154;2024-02-16T12:52:56;11.10;;;6.82;;
47021;SDS011;32779;52.264;6.154;2024-02-16T12:57:48;7.65;;;6.72;;
47021;SDS011;32779;52.264;6.154;2024-02-16T13:00:14;7.95;;;6.72;;
47021;SDS011;32779;52.264;6.154;2024-02-16T13:02:40;9.38;;;6.80;;
47021;SDS011;32779;52.264;6.154;2024-02-16T13:05:06;10.35;;;7.32;;
47021;SDS011;32779;52.264;6.154;2024-02-16T13:07:33;7.25;;;6.47;;
47021;SDS011;32779;52.264;6.154;2024-02-16T13:09:59;10.05;;;6.72;;
47021;SDS011;32779;52.264;6.154;2024-02-16T13:12:24;12.30;;;6.57;;
47021;SDS011;32779;52.264;6.154;2024-02-16T13:14:50;10.48;;;6.78;;
47021;SDS011;32779;52.264;6.154;2024-02-16T13:17:15;10.23;;;6.10;;
47021;SDS011;32779;52.264;6.154;2024-02-16T13:19:42;8.73;;;5.72;;
47021;SDS011;32779;52.264;6.154;2024-02-16T13:22:07;9.23;;;5.35;;
47021;SDS011;32779;52.264;6.154;2024-02-16T13:24:33;8.85;;;5.55;;
47021;SDS011;32779;52.264;6.154;2024-02-16T13:29:25;9.02;;;5.50;;
47021;SDS011;32779;52.264;6.154;2024-02-16T13:31:50;7.88;;;5.03;;
47021;SDS011;32779;52.264;6.154;2024-02-16T13:34:16;7.22;;;5.03;;
47021;SDS011;32779;52.264;6.154;2024-02-16T13:36:41;8.23;;;5.75;;
47021;SDS011;32779;52.264;6.154;2024-02-16T13:39:07;6.53;;;5.30;;
47021;SDS011;32779;52.264;6.154;2024-02-16T13:41:33;10.35;;;5.70;;
47021;SDS011;32779;52.264;6.154;2024-02-16T13:43:59;11.15;;;5.95;;
47021;SDS011;32779;52.264;6.154;2024-02-16T13:46:24;7.95;;;5.55;;
47021;SDS011;32779;52.264;6.154;2024-02-16T13:48:50;7.90;;;5.60;;
47021;SDS011;32779;52.264;6.154;2024-02-16T13:51:15;6.88;;;5.20;;
47021;SDS011;32779;52.264;6.154;2024-02-16T13:53:41;7.32;;;5.03;;
47021;SDS011;32779;52.264;6.154;2024-02-16T13:56:07;5.32;;;3.60;;
47021;SDS011;32779;52.264;6.154;2024-02-16T14:00:59;7.05;;;3.70;;
47021;SDS011;32779;52.264;6.154;2024-02-16T14:03:26;5.55;;;3.75;;
47021;SDS011;32779;52.264;6.154;2024-02-16T14:05:52;6.05;;;3.95;;
47021;SDS011;32779;52.264;6.154;2024-02-16T14:08:18;6.95;;;4.03;;
47021;SDS011;32779;52.264;6.154;2024-02-16T14:10:43;7.18;;;3.35;;
47021;SDS011;32779;52.264;6.154;2024-02-16T14:13:09;4.15;;;3.00;;
47021;SDS011;32779;52.264;6.154;2024-02-16T14:15:34;4.47;;;3.70;;
47021;SDS011;32779;52.264;6.154;2024-02-16T14:18:00;5.03;;;3.33;;
47021;SDS011;32779;52.264;6.154;2024-02-16T14:20:26;5.20;;;3.17;;
47021;SDS011;32779;52.264;6.154;2024-02-16T14:22:51;4.20;;;3.00;;
47021;SDS011;32779;52.264;6.154;2024-02-16T14:25:17;3.85;;;2.90;;
47021;SDS011;32779;52.264;6.154;2024-02-16T14:27:44;3.35;;;2.20;;
47021;SDS011;32779;52.264;6.154;2024-02-16T14:30:10;2.95;;;2.35;;
47021;SDS011;32779;52.264;6.154;2024-02-16T14:32:37;3.00;;;2.17;;
47021;SDS011;32779;52.264;6.154;2024-02-16T14:35:02;3.35;;;2.30;;
47021;SDS011;32779;52.264;6.154;2024-02-16T14:37:30;3.58;;;2.58;;
47021;SDS011;32779;52.264;6.154;2024-02-16T14:39:56;2.97;;;2.30;;
47021;SDS011;32779;52.264;6.154;2024-02-16T14:42:26;3.28;;;2.30;;
47021;SDS011;32779;52.264;6.154;2024-02-16T14:44:53;2.53;;;2.13;;
47021;SDS011;32779;52.264;6.154;2024-02-16T14:47:19;2.90;;;2.47;;
47021;SDS011;32779;52.264;6.154;2024-02-16T14:49:44;2.42;;;2.17;;
47021;SDS011;32779;52.264;6.154;2024-02-16T14:52:10;4.32;;;2.45;;
47021;SDS011;32779;52.264;6.154;2024-02-16T14:54:37;3.97;;;2.50;;
47021;SDS011;32779;52.264;6.154;2024-02-16T14:57:02;3.22;;;2.45;;
47021;SDS011;32779;52.264;6.154;2024-02-16T14:59:28;3.70;;;2.60;;
47021;SDS011;32779;52.264;6.154;2024-02-16T15:01:56;4.05;;;3.25;;
47021;SDS011;32779;52.264;6.154;2024-02-16T15:04:22;5.40;;;2.80;;
47021;SDS011;32779;52.264;6.154;2024-02-16T15:06:48;5.05;;;2.92;;
47021;SDS011;32779;52.264;6.154;2024-02-16T15:09:14;3.58;;;2.72;;
47021;SDS011;32779;52.264;6.154;2024-02-16T15:11:39;5.80;;;3.40;;
47021;SDS011;32779;52.264;6.154;2024-02-16T15:14:05;3.50;;;3.17;;
47021;SDS011;32779;52.264;6.154;2024-02-16T15:16:30;3.83;;;3.42;;